sensor_id;sensor_type;location;lat;lon;timestamp;pressure;altitude;pressure_sealevel;temperature;humidity
64679;BME280;51094;53.864;27.676;2024-02-21T00:01:33;99166.06;;;1.21;85.69
64679;BME280;51094;53.864;27.676;2024-02-21T00:04:00;99165.47;;;1.13;85.53
64679;BME280;51094;53.864;27.676;2024-02-21T00:06:30;99179.91;;;1.16;85.49
64679;BME280;51094;53.864;27.676;2024-02-21T00:08:59;99169.81;;;1.11;85.43
64679;BME280;51094;53.864;27.676;2024-02-21T00:11:26;99129.59;;;0.88;85.38
64679;BME280;51094;53.864;27.676;2024-02-21T00:13:58;98957.44;;;-0.16;85.83
64679;BME280;51094;53.864;27.676;2024-02-21T00:16:25;99043.63;;;0.33;85.34
64679;BME280;51094;53.864;27.676;2024-02-21T00:18:52;99058.50;;;-0.34;85.24
64679;BME280;51094;53.864;27.676;2024-02-21T00:21:22;99149.19;;;0.89;85.46
64679;BME280;51094;53.864;27.676;2024-02-21T00:23:52;99155.03;;;0.93;85.11
64679;BME280;51094;53.864;27.676;2024-02-21T00:26:19;99073.41;;;0.34;85.03
64679;BME280;51094;53.864;27.676;2024-02-21T00:28:46;99008.66;;;-0.19;85.01
64679;BME280;51094;53.864;27.676;2024-02-21T00:31:14;99162.31;;;0.80;85.20
64679;BME280;51094;53.864;27.676;2024-02-21T00:33:46;99109.44;;;0.53;85.62
64679;BME280;51094;53.864;27.676;2024-02-21T00:36:13;99139.63;;;0.70;85.31
64679;BME280;51094;53.864;27.676;2024-02-21T00:38:44;99188.31;;;0.93;84.96
64679;BME280;51094;53.864;27.676;2024-02-21T00:41:13;99189.44;;;0.86;85.40
64679;BME280;51094;53.864;27.676;2024-02-21T00:43:41;99181.97;;;0.80;85.09
64679;BME280;51094;53.864;27.676;2024-02-21T00:46:11;99175.22;;;0.77;85.03
64679;BME280;51094;53.864;27.676;2024-02-21T00:48:38;99187.16;;;0.77;85.23
64679;BME280;51094;53.864;27.676;2024-02-21T00:51:05;99174.53;;;0.72;84.87
64679;BME280;51094;53.864;27.676;2024-02-21T00:53:35;99171.97;;;0.72;84.91
64679;BME280;51094;53.864;27.676;2024-02-21T00:56:09;99168.75;;;0.65;85.37
64679;BME280;51094;53.864;27.676;2024-02-21T00:58:36;99166.06;;;0.70;85.63
64679;BME280;51094;53.864;27.676;2024-02-21T01:01:04;99175.25;;;0.76;85.39
64679;BME280;51094;53.864;27.676;2024-02-21T01:03:32;99171.72;;;0.80;85.69
64679;BME280;51094;53.864;27.676;2024-02-21T01:05:59;99163.75;;;0.87;85.98
64679;BME280;51094;53.864;27.676;2024-02-21T01:08:26;99162.22;;;0.83;85.47
64679;BME280;51094;53.864;27.676;2024-02-21T01:10:53;99118.66;;;0.58;85.36
64679;BME280;51094;53.864;27.676;2024-02-21T01:13:20;99001.84;;;-0.20;84.98
64679;BME280;51094;53.864;27.676;2024-02-21T01:15:47;99165.56;;;0.85;85.11
64679;BME280;51094;53.864;27.676;2024-02-21T01:18:14;99151.25;;;0.80;85.42
64679;BME280;51094;53.864;27.676;2024-02-21T01:20:44;99181.53;;;0.92;85.54
64679;BME280;51094;53.864;27.676;2024-02-21T01:23:17;99171.88;;;1.00;85.60
64679;BME280;51094;53.864;27.676;2024-02-21T01:25:46;99144.19;;;0.86;84.78
64679;BME280;51094;53.864;27.676;2024-02-21T01:28:14;99173.72;;;0.96;84.97
64679;BME280;51094;53.864;27.676;2024-02-21T01:30:44;99182.41;;;0.91;85.03
64679;BME280;51094;53.864;27.676;2024-02-21T01:33:14;99177.34;;;0.89;84.79
64679;BME280;51094;53.864;27.676;2024-02-21T01:35:41;99173.06;;;0.90;84.61
64679;BME280;51094;53.864;27.676;2024-02-21T01:38:09;99163.94;;;0.83;85.32
64679;BME280;51094;53.864;27.676;2024-02-21T01:40:37;99166.41;;;0.86;84.61
64679;BME280;51094;53.864;27.676;2024-02-21T01:43:15;99183.22;;;0.93;84.66
64679;BME280;51094;53.864;27.676;2024-02-21T01:45:49;99131.69;;;0.51;84.01
64679;BME280;51094;53.864;27.676;2024-02-21T01:48:21;99167.97;;;0.63;84.60
64679;BME280;51094;53.864;27.676;2024-02-21T01:50:54;99230.78;;;0.74;84.17
64679;BME280;51094;53.864;27.676;2024-02-21T01:53:24;99125.09;;;0.17;83.95
64679;BME280;51094;53.864;27.676;2024-02-21T01:55:52;99185.50;;;0.76;84.49
64679;BME280;51094;53.864;27.676;2024-02-21T01:58:20;99171.03;;;0.75;84.54
64679;BME280;51094;53.864;27.676;2024-02-21T02:00:48;99181.63;;;0.89;84.81
64679;BME280;51094;53.864;27.676;2024-02-21T02:03:18;99108.75;;;0.48;84.07
64679;BME280;51094;53.864;27.676;2024-02-21T02:05:46;99126.34;;;0.58;84.21
64679;BME280;51094;53.864;27.676;2024-02-21T02:08:14;99191.81;;;0.90;84.00
64679;BME280;51094;53.864;27.676;2024-02-21T02:10:45;99194.47;;;0.87;84.10
64679;BME280;51094;53.864;27.676;2024-02-21T02:13:13;99191.91;;;0.87;83.66
64679;BME280;51094;53.864;27.676;2024-02-21T02:15:49;99184.75;;;0.72;83.48
64679;BME280;51094;53.864;27.676;2024-02-21T02:18:18;99189.88;;;0.72;83.58
64679;BME280;51094;53.864;27.676;2024-02-21T02:20:46;99173.78;;;0.69;83.92
64679;BME280;51094;53.864;27.676;2024-02-21T02:23:25;99190.19;;;0.35;84.26
64679;BME280;51094;53.864;27.676;2024-02-21T02:25:52;99088.06;;;0.29;84.39
64679;BME280;51094;53.864;27.676;2024-02-21T02:28:20;99198.47;;;0.96;83.96
64679;BME280;51094;53.864;27.676;2024-02-21T02:30:48;99048.84;;;0.02;83.55
64679;BME280;51094;53.864;27.676;2024-02-21T02:33:16;99189.53;;;0.83;83.46
64679;BME280;51094;53.864;27.676;2024-02-21T02:35:49;98999.28;;;-0.47;83.59
64679;BME280;51094;53.864;27.676;2024-02-21T02:38:16;99130.28;;;0.42;83.85
64679;BME280;51094;53.864;27.676;2024-02-21T02:40:43;99158.53;;;0.65;84.15
64679;BME280;51094;53.864;27.676;2024-02-21T02:43:12;99187.16;;;0.77;84.08
64679;BME280;51094;53.864;27.676;2024-02-21T02:45:40;99201.56;;;1.06;84.29
64679;BME280;51094;53.864;27.676;2024-02-21T02:48:07;98987.00;;;-0.36;83.62
64679;BME280;51094;53.864;27.676;2024-02-21T02:50:37;99187.59;;;0.89;83.66
64679;BME280;51094;53.864;27.676;2024-02-21T02:53:04;99208.41;;;1.05;83.88
64679;BME280;51094;53.864;27.676;2024-02-21T02:55:31;99155.72;;;0.73;83.90
64679;BME280;51094;53.864;27.676;2024-02-21T02:57:58;99160.97;;;0.69;83.35
64679;BME280;51094;53.864;27.676;2024-02-21T03:00:28;99189.44;;;0.86;83.15
64679;BME280;51094;53.864;27.676;2024-02-21T03:02:55;99187.91;;;0.80;82.94
64679;BME280;51094;53.864;27.676;2024-02-21T03:05:22;99173.81;;;0.67;82.94
64679;BME280;51094;53.864;27.676;2024-02-21T03:07:50;99154.06;;;0.44;82.94
64679;BME280;51094;53.864;27.676;2024-02-21T03:10:17;99193.66;;;0.60;82.99
64679;BME280;51094;53.864;27.676;2024-02-21T03:12:45;99155.75;;;0.45;83.47
64679;BME280;51094;53.864;27.676;2024-02-21T03:15:13;99060.22;;;-0.07;83.31
64679;BME280;51094;53.864;27.676;2024-02-21T03:17:41;99217.69;;;0.83;83.07
64679;BME280;51094;53.864;27.676;2024-02-21T03:20:09;99217.88;;;0.77;82.91
64679;BME280;51094;53.864;27.676;2024-02-21T03:22:39;99214.50;;;0.76;83.22
64679;BME280;51094;53.864;27.676;2024-02-21T03:25:10;99217.88;;;0.77;83.06
64679;BME280;51094;53.864;27.676;2024-02-21T03:27:38;99165.03;;;0.48;83.46
64679;BME280;51094;53.864;27.676;2024-02-21T03:30:09;99218.59;;;0.82;82.95
64679;BME280;51094;53.864;27.676;2024-02-21T03:32:35;99219.56;;;0.78;82.90
64679;BME280;51094;53.864;27.676;2024-02-21T03:35:03;99149.16;;;0.38;83.07
64679;BME280;51094;53.864;27.676;2024-02-21T03:37:30;99221.25;;;0.79;83.07
64679;BME280;51094;53.864;27.676;2024-02-21T03:39:57;99199.56;;;0.62;82.58
64679;BME280;51094;53.864;27.676;2024-02-21T03:42:28;99126.06;;;0.13;82.58
64679;BME280;51094;53.864;27.676;2024-02-21T03:44:56;99219.00;;;0.68;83.11
64679;BME280;51094;53.864;27.676;2024-02-21T03:47:23;99187.22;;;0.47;83.13
64679;BME280;51094;53.864;27.676;2024-02-21T03:49:53;99225.56;;;0.77;83.30
64679;BME280;51094;53.864;27.676;2024-02-21T03:52:22;99219.66;;;0.75;82.93
64679;BME280;51094;53.864;27.676;2024-02-21T03:54:53;98898.00;;;-1.31;82.80
64679;BME280;51094;53.864;27.676;2024-02-21T03:57:21;99203.06;;;0.60;82.70
64679;BME280;51094;53.864;27.676;2024-02-21T03:59:51;99234.38;;;0.68;82.29
64679;BME280;51094;53.864;27.676;2024-02-21T04:02:19;99242.31;;;0.59;82.69
64679;BME280;51094;53.864;27.676;2024-02-21T04:04:46;99162.69;;;0.14;82.44
64679;BME280;51094;53.864;27.676;2024-02-21T04:07:15;99228.72;;;0.57;82.46
64679;BME280;51094;53.864;27.676;2024-02-21T04:09:42;99227.09;;;0.54;82.43
64679;BME280;51094;53.864;27.676;2024-02-21T04:12:09;99221.00;;;0.58;83.29
64679;BME280;51094;53.864;27.676;2024-02-21T04:14:36;99194.47;;;0.35;82.74
64679;BME280;51094;53.864;27.676;2024-02-21T04:17:03;99221.72;;;0.63;82.88
64679;BME280;51094;53.864;27.676;2024-02-21T04:19:32;99198.16;;;0.52;82.73
64679;BME280;51094;53.864;27.676;2024-02-21T04:22:02;99196.97;;;0.36;82.46
64679;BME280;51094;53.864;27.676;2024-02-21T04:24:29;99226.06;;;0.60;82.48
64679;BME280;51094;53.864;27.676;2024-02-21T04:26:56;99229.63;;;0.56;82.76
64679;BME280;51094;53.864;27.676;2024-02-21T04:29:23;99235.56;;;0.56;83.30
64679;BME280;51094;53.864;27.676;2024-02-21T04:31:50;99166.78;;;0.19;83.09
64679;BME280;51094;53.864;27.676;2024-02-21T04:34:17;99220.91;;;0.61;83.05
64679;BME280;51094;53.864;27.676;2024-02-21T04:36:45;99231.84;;;0.66;83.16
64679;BME280;51094;53.864;27.676;2024-02-21T04:39:12;99229.06;;;0.74;83.09
64679;BME280;51094;53.864;27.676;2024-02-21T04:41:39;99233.25;;;0.77;82.76
64679;BME280;51094;53.864;27.676;2024-02-21T04:44:06;99012.38;;;-0.57;83.65
64679;BME280;51094;53.864;27.676;2024-02-21T04:46:33;99223.69;;;0.82;83.77
64679;BME280;51094;53.864;27.676;2024-02-21T04:49:00;99212.94;;;0.97;83.54
64679;BME280;51094;53.864;27.676;2024-02-21T04:51:27;99172.91;;;0.94;84.06
64679;BME280;51094;53.864;27.676;2024-02-21T04:53:54;99192.41;;;0.98;82.79
64679;BME280;51094;53.864;27.676;2024-02-21T04:56:21;99000.94;;;-0.18;83.24
64679;BME280;51094;53.864;27.676;2024-02-21T04:58:49;99179.13;;;0.87;83.08
64679;BME280;51094;53.864;27.676;2024-02-21T05:01:23;99214.72;;;0.95;82.35
64679;BME280;51094;53.864;27.676;2024-02-21T05:03:52;99186.53;;;0.70;82.90
64679;BME280;51094;53.864;27.676;2024-02-21T05:06:25;99192.88;;;0.58;82.73
64679;BME280;51094;53.864;27.676;2024-02-21T05:08:59;99236.59;;;0.79;82.92
64679;BME280;51094;53.864;27.676;2024-02-21T05:11:34;99221.56;;;0.68;83.12
64679;BME280;51094;53.864;27.676;2024-02-21T05:14:11;99240.03;;;0.78;83.32
64679;BME280;51094;53.864;27.676;2024-02-21T05:16:46;99192.06;;;0.30;82.68
64679;BME280;51094;53.864;27.676;2024-02-21T05:19:21;99253.03;;;0.72;82.93
64679;BME280;51094;53.864;27.676;2024-02-21T05:21:54;99123.38;;;-0.10;82.46
64679;BME280;51094;53.864;27.676;2024-02-21T05:24:36;99247.22;;;0.66;82.41
64679;BME280;51094;53.864;27.676;2024-02-21T05:27:10;99246.47;;;0.63;82.92
64679;BME280;51094;53.864;27.676;2024-02-21T05:29:40;99251.44;;;0.68;83.09
64679;BME280;51094;53.864;27.676;2024-02-21T05:32:12;99216.88;;;0.54;82.83
64679;BME280;51094;53.864;27.676;2024-02-21T05:34:42;99206.94;;;0.44;83.15
64679;BME280;51094;53.864;27.676;2024-02-21T05:37:16;99240.22;;;0.72;83.55
64679;BME280;51094;53.864;27.676;2024-02-21T05:39:52;99252.84;;;0.78;83.57
64679;BME280;51094;53.864;27.676;2024-02-21T05:42:20;99232.53;;;0.72;82.92
64679;BME280;51094;53.864;27.676;2024-02-21T05:44:48;99214.22;;;0.57;83.27
64679;BME280;51094;53.864;27.676;2024-02-21T05:47:19;99253.53;;;0.83;83.06
64679;BME280;51094;53.864;27.676;2024-02-21T05:49:47;99232.59;;;0.70;83.20
64679;BME280;51094;53.864;27.676;2024-02-21T05:52:17;99237.47;;;0.78;83.01
64679;BME280;51094;53.864;27.676;2024-02-21T05:54:44;99246.84;;;0.79;83.21
64679;BME280;51094;53.864;27.676;2024-02-21T05:57:14;99131.91;;;0.17;83.32
64679;BME280;51094;53.864;27.676;2024-02-21T05:59:49;99263.97;;;1.03;82.93
64679;BME280;51094;53.864;27.676;2024-02-21T06:02:16;99259.53;;;1.08;83.41
64679;BME280;51094;53.864;27.676;2024-02-21T06:04:43;99259.53;;;1.08;83.16
64679;BME280;51094;53.864;27.676;2024-02-21T06:07:11;99257.03;;;1.07;82.39
64679;BME280;51094;53.864;27.676;2024-02-21T06:09:39;99162.00;;;0.37;82.56
64679;BME280;51094;53.864;27.676;2024-02-21T06:12:08;99257.91;;;1.06;82.71
64679;BME280;51094;53.864;27.676;2024-02-21T06:14:37;99232.16;;;0.84;81.82
64679;BME280;51094;53.864;27.676;2024-02-21T06:17:09;99186.06;;;0.57;82.21
64679;BME280;51094;53.864;27.676;2024-02-21T06:19:36;99267.72;;;1.19;82.44
64679;BME280;51094;53.864;27.676;2024-02-21T06:22:08;99257.28;;;1.25;82.25
64679;BME280;51094;53.864;27.676;2024-02-21T06:24:36;99247.41;;;1.13;81.82
64679;BME280;51094;53.864;27.676;2024-02-21T06:27:12;99267.09;;;1.38;82.24
64679;BME280;51094;53.864;27.676;2024-02-21T06:29:41;99137.84;;;0.72;82.32
64679;BME280;51094;53.864;27.676;2024-02-21T06:32:08;99273.81;;;1.66;82.00
64679;BME280;51094;53.864;27.676;2024-02-21T06:34:37;99274.66;;;1.67;81.19
64679;BME280;51094;53.864;27.676;2024-02-21T06:37:12;99275.94;;;1.54;81.12
64679;BME280;51094;53.864;27.676;2024-02-21T06:39:44;99271.63;;;1.56;81.05
64679;BME280;51094;53.864;27.676;2024-02-21T06:42:12;99263.63;;;1.65;81.51
64679;BME280;51094;53.864;27.676;2024-02-21T06:44:41;99278.44;;;1.80;81.12
64679;BME280;51094;53.864;27.676;2024-02-21T06:47:11;99223.63;;;1.34;80.52
64679;BME280;51094;53.864;27.676;2024-02-21T06:49:48;99279.00;;;1.65;79.96
64679;BME280;51094;53.864;27.676;2024-02-21T06:52:18;99279.34;;;1.54;79.47
64679;BME280;51094;53.864;27.676;2024-02-21T06:54:47;99289.84;;;1.47;79.83
64679;BME280;51094;53.864;27.676;2024-02-21T06:57:14;99287.19;;;1.50;80.24
64679;BME280;51094;53.864;27.676;2024-02-21T06:59:42;99120.91;;;0.43;79.39
64679;BME280;51094;53.864;27.676;2024-02-21T07:02:09;99289.16;;;1.42;79.57
64679;BME280;51094;53.864;27.676;2024-02-21T07:04:36;99244.16;;;1.08;79.25
64679;BME280;51094;53.864;27.676;2024-02-21T07:07:04;99255.78;;;1.18;80.07
64679;BME280;51094;53.864;27.676;2024-02-21T07:09:49;99198.91;;;1.09;80.54
64679;BME280;51094;53.864;27.676;2024-02-21T07:12:16;99291.38;;;1.77;80.02
64679;BME280;51094;53.864;27.676;2024-02-21T07:14:44;99297.19;;;1.82;80.11
64679;BME280;51094;53.864;27.676;2024-02-21T07:17:13;99266.06;;;1.68;79.23
64679;BME280;51094;53.864;27.676;2024-02-21T07:19:43;99260.91;;;1.70;79.73
64679;BME280;51094;53.864;27.676;2024-02-21T07:22:10;99264.00;;;1.78;79.21
64679;BME280;51094;53.864;27.676;2024-02-21T07:24:37;99294.19;;;1.94;79.65
64679;BME280;51094;53.864;27.676;2024-02-21T07:27:04;99220.41;;;1.54;79.09
64679;BME280;51094;53.864;27.676;2024-02-21T07:29:33;99284.72;;;1.96;78.99
64679;BME280;51094;53.864;27.676;2024-02-21T07:32:05;99312.94;;;1.96;78.66
64679;BME280;51094;53.864;27.676;2024-02-21T07:34:32;99306.13;;;1.95;79.32
64679;BME280;51094;53.864;27.676;2024-02-21T07:37:00;99282.66;;;2.06;79.37
64679;BME280;51094;53.864;27.676;2024-02-21T07:39:30;99259.03;;;1.98;78.96
64679;BME280;51094;53.864;27.676;2024-02-21T07:42:02;99212.34;;;1.65;78.69
64679;BME280;51094;53.864;27.676;2024-02-21T07:44:31;99283.28;;;2.13;78.74
64679;BME280;51094;53.864;27.676;2024-02-21T07:47:01;99136.09;;;1.23;78.68
64679;BME280;51094;53.864;27.676;2024-02-21T07:49:44;99081.00;;;0.87;78.71
64679;BME280;51094;53.864;27.676;2024-02-21T07:52:16;99297.59;;;2.18;78.53
64679;BME280;51094;53.864;27.676;2024-02-21T07:54:46;99293.09;;;2.02;77.67
64679;BME280;51094;53.864;27.676;2024-02-21T07:57:20;99239.28;;;1.52;77.65
64679;BME280;51094;53.864;27.676;2024-02-21T07:59:47;99208.56;;;1.27;77.69
64679;BME280;51094;53.864;27.676;2024-02-21T08:02:18;99302.34;;;1.81;78.09
64679;BME280;51094;53.864;27.676;2024-02-21T08:04:47;99218.75;;;1.28;77.86
64679;BME280;51094;53.864;27.676;2024-02-21T08:07:19;99229.41;;;1.41;77.92
64679;BME280;51094;53.864;27.676;2024-02-21T08:09:48;99235.88;;;1.51;78.28
64679;BME280;51094;53.864;27.676;2024-02-21T08:12:24;99291.22;;;2.07;78.44
64679;BME280;51094;53.864;27.676;2024-02-21T08:14:51;99277.38;;;2.11;78.51
64679;BME280;51094;53.864;27.676;2024-02-21T08:17:20;99154.94;;;1.46;77.64
64679;BME280;51094;53.864;27.676;2024-02-21T08:19:48;99273.66;;;2.18;77.07
64679;BME280;51094;53.864;27.676;2024-02-21T08:22:16;99310.25;;;1.99;76.67
64679;BME280;51094;53.864;27.676;2024-02-21T08:24:43;99283.84;;;1.97;77.38
64679;BME280;51094;53.864;27.676;2024-02-21T08:27:10;99297.53;;;2.20;77.74
64679;BME280;51094;53.864;27.676;2024-02-21T08:29:37;99286.28;;;2.24;77.22
64679;BME280;51094;53.864;27.676;2024-02-21T08:32:07;99278.16;;;2.13;76.33
64679;BME280;51094;53.864;27.676;2024-02-21T08:34:34;99259.66;;;2.05;77.17
64679;BME280;51094;53.864;27.676;2024-02-21T08:37:01;99274.25;;;2.26;77.41
64679;BME280;51094;53.864;27.676;2024-02-21T08:39:28;99290.75;;;2.42;77.15
64679;BME280;51094;53.864;27.676;2024-02-21T08:41:57;99292.94;;;2.53;77.38
64679;BME280;51094;53.864;27.676;2024-02-21T08:44:24;99304.03;;;2.53;76.69
64679;BME280;51094;53.864;27.676;2024-02-21T08:46:54;99300.28;;;2.39;76.86
64679;BME280;51094;53.864;27.676;2024-02-21T08:49:23;99297.44;;;2.46;76.89
64679;BME280;51094;53.864;27.676;2024-02-21T08:51:57;99290.66;;;2.67;77.17
64679;BME280;51094;53.864;27.676;2024-02-21T08:54:24;99292.38;;;2.66;76.84
64679;BME280;51094;53.864;27.676;2024-02-21T08:56:54;99286.91;;;2.54;76.75
64679;BME280;51094;53.864;27.676;2024-02-21T08:59:20;99260.50;;;2.50;76.94
64679;BME280;51094;53.864;27.676;2024-02-21T09:01:51;99365.06;;;2.68;76.67
64679;BME280;51094;53.864;27.676;2024-02-21T09:04:21;99297.16;;;2.54;75.84
64679;BME280;51094;53.864;27.676;2024-02-21T09:06:51;99307.09;;;2.40;75.69
64679;BME280;51094;53.864;27.676;2024-02-21T09:09:19;99263.41;;;2.18;76.28
64679;BME280;51094;53.864;27.676;2024-02-21T09:11:46;99296.56;;;2.47;76.17
64679;BME280;51094;53.864;27.676;2024-02-21T09:14:14;99306.03;;;2.45;76.33
64679;BME280;51094;53.864;27.676;2024-02-21T09:16:44;99210.28;;;1.98;76.58
64679;BME280;51094;53.864;27.676;2024-02-21T09:19:11;99303.91;;;2.33;75.32
64679;BME280;51094;53.864;27.676;2024-02-21T09:21:38;99238.84;;;2.12;76.64
64679;BME280;51094;53.864;27.676;2024-02-21T09:24:06;99247.75;;;2.25;76.64
64679;BME280;51094;53.864;27.676;2024-02-21T09:26:33;99304.53;;;2.85;76.87
64679;BME280;51094;53.864;27.676;2024-02-21T09:29:02;98999.16;;;1.09;75.80
64679;BME280;51094;53.864;27.676;2024-02-21T09:31:30;99288.47;;;2.80;76.17
64679;BME280;51094;53.864;27.676;2024-02-21T09:33:57;99257.72;;;2.56;75.72
64679;BME280;51094;53.864;27.676;2024-02-21T09:36:27;99264.09;;;2.68;76.35
64679;BME280;51094;53.864;27.676;2024-02-21T09:38:55;99228.75;;;2.53;76.24
64679;BME280;51094;53.864;27.676;2024-02-21T09:41:34;99174.22;;;2.03;74.94
64679;BME280;51094;53.864;27.676;2024-02-21T09:44:13;99284.50;;;2.49;75.84
64679;BME280;51094;53.864;27.676;2024-02-21T09:49:34;99307.59;;;2.49;75.88
64679;BME280;51094;53.864;27.676;2024-02-21T09:52:06;99248.47;;;2.29;76.11
64679;BME280;51094;53.864;27.676;2024-02-21T09:54:34;99229.31;;;1.92;75.63
64679;BME280;51094;53.864;27.676;2024-02-21T09:57:05;99279.31;;;2.27;76.16
64679;BME280;51094;53.864;27.676;2024-02-21T09:59:37;99298.78;;;2.56;76.73
64679;BME280;51094;53.864;27.676;2024-02-21T10:02:05;99231.75;;;2.19;76.75
64679;BME280;51094;53.864;27.676;2024-02-21T10:04:33;99293.34;;;2.64;75.67
64679;BME280;51094;53.864;27.676;2024-02-21T10:07:01;99318.56;;;2.76;75.93
64679;BME280;51094;53.864;27.676;2024-02-21T10:09:28;99308.28;;;2.76;76.08
64679;BME280;51094;53.864;27.676;2024-02-21T10:12:10;99298.41;;;2.65;75.88
64679;BME280;51094;53.864;27.676;2024-02-21T10:14:44;99309.56;;;2.64;75.94
64679;BME280;51094;53.864;27.676;2024-02-21T10:17:17;99304.66;;;2.82;76.26
64679;BME280;51094;53.864;27.676;2024-02-21T10:19:49;99292.50;;;2.63;75.76
64679;BME280;51094;53.864;27.676;2024-02-21T10:22:19;99252.81;;;2.50;75.51
64679;BME280;51094;53.864;27.676;2024-02-21T10:24:47;99082.75;;;1.58;76.03
64679;BME280;51094;53.864;27.676;2024-02-21T10:27:14;99248.34;;;2.55;75.64
64679;BME280;51094;53.864;27.676;2024-02-21T10:29:49;99244.16;;;2.53;75.70
64679;BME280;51094;53.864;27.676;2024-02-21T10:32:20;99240.97;;;2.46;76.00
64679;BME280;51094;53.864;27.676;2024-02-21T10:34:49;99252.38;;;2.39;75.14
64679;BME280;51094;53.864;27.676;2024-02-21T10:37:26;99237.31;;;2.30;75.85
64679;BME280;51094;53.864;27.676;2024-02-21T10:39:58;99297.28;;;2.73;76.61
64679;BME280;51094;53.864;27.676;2024-02-21T10:42:29;99304.16;;;2.72;75.66
64679;BME280;51094;53.864;27.676;2024-02-21T10:45:02;99298.28;;;2.68;76.40
64679;BME280;51094;53.864;27.676;2024-02-21T10:47:32;99292.53;;;2.85;77.00
64679;BME280;51094;53.864;27.676;2024-02-21T10:50:03;99300.53;;;2.78;76.48
64679;BME280;51094;53.864;27.676;2024-02-21T10:55:35;99329.88;;;2.71;76.26
64679;BME280;51094;53.864;27.676;2024-02-21T10:58:10;99297.75;;;2.60;76.58
64679;BME280;51094;53.864;27.676;2024-02-21T11:00:46;99297.16;;;2.76;77.74
64679;BME280;51094;53.864;27.676;2024-02-21T11:03:16;99297.53;;;2.88;77.24
64679;BME280;51094;53.864;27.676;2024-02-21T11:05:44;99289.59;;;2.94;76.94
64679;BME280;51094;53.864;27.676;2024-02-21T11:08:17;99235.78;;;2.70;76.35
64679;BME280;51094;53.864;27.676;2024-02-21T11:10:47;99190.59;;;2.44;76.75
64679;BME280;51094;53.864;27.676;2024-02-21T11:13:14;99289.59;;;2.94;76.47
64679;BME280;51094;53.864;27.676;2024-02-21T11:15:41;99294.63;;;2.97;76.67
64679;BME280;51094;53.864;27.676;2024-02-21T11:18:23;99234.88;;;2.71;76.88
64679;BME280;51094;53.864;27.676;2024-02-21T11:20:51;99273.13;;;3.00;77.25
64679;BME280;51094;53.864;27.676;2024-02-21T11:23:26;99291.59;;;3.08;76.53
64679;BME280;51094;53.864;27.676;2024-02-21T11:26:09;99278.63;;;2.91;76.57
64679;BME280;51094;53.864;27.676;2024-02-21T11:28:41;99281.25;;;2.89;77.70
64679;BME280;51094;53.864;27.676;2024-02-21T11:31:15;99292.78;;;3.01;78.10
64679;BME280;51094;53.864;27.676;2024-02-21T11:33:47;99274.31;;;2.91;77.91
64679;BME280;51094;53.864;27.676;2024-02-21T11:36:26;99248.91;;;2.62;77.62
64679;BME280;51094;53.864;27.676;2024-02-21T11:38:54;99287.31;;;2.65;77.71
64679;BME280;51094;53.864;27.676;2024-02-21T11:41:21;99257.16;;;2.25;79.14
64679;BME280;51094;53.864;27.676;2024-02-21T11:43:49;99186.81;;;1.85;79.62
64679;BME280;51094;53.864;27.676;2024-02-21T11:46:17;99276.84;;;2.24;80.90
64679;BME280;51094;53.864;27.676;2024-02-21T11:48:48;99283.16;;;2.39;81.37
64679;BME280;51094;53.864;27.676;2024-02-21T11:51:28;99228.59;;;2.12;80.68
64679;BME280;51094;53.864;27.676;2024-02-21T11:54:07;99279.47;;;2.23;80.43
64679;BME280;51094;53.864;27.676;2024-02-21T11:56:39;99270.59;;;2.55;81.19
64679;BME280;51094;53.864;27.676;2024-02-21T11:59:06;99265.81;;;2.67;80.90
64679;BME280;51094;53.864;27.676;2024-02-21T12:01:36;99275.75;;;2.77;81.17
64679;BME280;51094;53.864;27.676;2024-02-21T12:04:03;99244.56;;;2.86;81.26
64679;BME280;51094;53.864;27.676;2024-02-21T12:06:32;99252.28;;;2.86;80.68
64679;BME280;51094;53.864;27.676;2024-02-21T12:09:01;99253.47;;;2.99;81.03
64679;BME280;51094;53.864;27.676;2024-02-21T12:11:29;99214.88;;;2.79;80.48
64679;BME280;51094;53.864;27.676;2024-02-21T12:14:02;99262.97;;;2.97;80.32
64679;BME280;51094;53.864;27.676;2024-02-21T12:16:32;99270.34;;;2.61;80.38
64679;BME280;51094;53.864;27.676;2024-02-21T12:19:00;99275.13;;;2.48;80.93
64679;BME280;51094;53.864;27.676;2024-02-21T12:21:31;99262.19;;;2.28;81.39
64679;BME280;51094;53.864;27.676;2024-02-21T12:24:00;99207.91;;;1.70;82.83
64679;BME280;51094;53.864;27.676;2024-02-21T12:26:29;99260.25;;;2.11;83.26
64679;BME280;51094;53.864;27.676;2024-02-21T12:28:59;99259.31;;;2.14;83.01
64679;BME280;51094;53.864;27.676;2024-02-21T12:31:29;99251.06;;;2.06;83.48
64679;BME280;51094;53.864;27.676;2024-02-21T12:33:57;99203.00;;;1.87;83.05
64679;BME280;51094;53.864;27.676;2024-02-21T12:36:24;99258.00;;;2.25;83.47
64679;BME280;51094;53.864;27.676;2024-02-21T12:38:51;99259.50;;;2.31;83.48
64679;BME280;51094;53.864;27.676;2024-02-21T12:41:18;99257.16;;;2.25;83.45
64679;BME280;51094;53.864;27.676;2024-02-21T12:43:46;99279.16;;;2.32;83.96
64679;BME280;51094;53.864;27.676;2024-02-21T12:46:14;99250.13;;;2.30;83.37
64679;BME280;51094;53.864;27.676;2024-02-21T12:48:41;99241.56;;;2.31;83.91
64679;BME280;51094;53.864;27.676;2024-02-21T12:51:08;99247.91;;;2.44;84.37
64679;BME280;51094;53.864;27.676;2024-02-21T12:53:43;99247.66;;;2.50;84.03
64679;BME280;51094;53.864;27.676;2024-02-21T12:56:13;99265.09;;;2.42;83.61
64679;BME280;51094;53.864;27.676;2024-02-21T12:58:41;99199.41;;;2.15;83.71
64679;BME280;51094;53.864;27.676;2024-02-21T13:01:10;99072.50;;;1.34;83.74
64679;BME280;51094;53.864;27.676;2024-02-21T13:03:42;99144.56;;;1.49;83.10
64679;BME280;51094;53.864;27.676;2024-02-21T13:06:09;99256.06;;;2.32;84.06
64679;BME280;51094;53.864;27.676;2024-02-21T13:08:41;99248.22;;;2.13;83.84
64679;BME280;51094;53.864;27.676;2024-02-21T13:11:13;99222.28;;;1.97;84.27
64679;BME280;51094;53.864;27.676;2024-02-21T13:13:40;99246.19;;;2.21;84.40
64679;BME280;51094;53.864;27.676;2024-02-21T13:16:09;99239.22;;;2.02;84.23
64679;BME280;51094;53.864;27.676;2024-02-21T13:18:39;99238.56;;;1.96;84.40